Time;durP1;ratioP1;P1;durP2;ratioP2;P2;SDS_P1;SDS_P2;PMS_P1;PMS_P2;Temp;Humidity;BMP_temperature;BMP_pressure;BME280_temperature;BME280_humidity;BME280_pressure;Samples;Min_cycle;Max_cycle;Signal;HPM_P1;HPM_P2
2022/12/05 00:01:41;;;;;;;52.10;21.47;;;;;1.70;101140.00;;;;9759517;30;20206;-77
2022/12/05 00:06:47;;;;;;;59.47;22.50;;;;;1.70;101150.00;;;;9769295;30;20620;-77
2022/12/05 00:11:48;;;;;;;52.07;21.77;;;;;1.70;101144.00;;;;9749192;30;20209;-77
2022/12/05 00:16:51;;;;;;;49.43;19.63;;;;;1.70;101136.00;;;;9740460;30;20299;-77
2022/12/05 00:21:53;;;;;;;54.50;21.40;;;;;1.70;101149.00;;;;9750410;30;20213;-77
2022/12/05 00:26:55;;;;;;;51.53;21.73;;;;;1.70;101141.00;;;;9759314;30;20235;-77
2022/12/05 00:31:57;;;;;;;54.60;19.77;;;;;1.70;101142.00;;;;9765255;30;20194;-78
2022/12/05 00:36:59;;;;;;;46.07;20.00;;;;;1.70;101138.00;;;;9770311;30;20214;-78
2022/12/05 00:42:00;;;;;;;54.97;19.73;;;;;1.70;101145.00;;;;9753828;30;20243;-78
2022/12/05 00:47:02;;;;;;;52.43;21.50;;;;;1.70;101153.00;;;;9760186;30;20260;-78
2022/12/05 00:52:04;;;;;;;49.57;20.70;;;;;1.60;101142.00;;;;9745909;30;20585;-78
2022/12/05 00:57:06;;;;;;;45.57;19.50;;;;;1.60;101144.00;;;;9767299;30;20309;-78
2022/12/05 01:02:08;;;;;;;49.93;21.83;;;;;1.50;101150.00;;;;9768047;30;20202;-78
2022/12/05 01:07:10;;;;;;;53.47;20.03;;;;;1.50;101152.00;;;;9742745;30;20260;-78
2022/12/05 01:12:12;;;;;;;51.77;19.50;;;;;1.50;101150.00;;;;9761189;30;20209;-78
2022/12/05 01:17:13;;;;;;;49.10;19.60;;;;;1.50;101159.00;;;;9768603;30;20221;-78
2022/12/05 01:22:15;;;;;;;49.90;20.33;;;;;1.50;101165.00;;;;9772860;30;20257;-78
2022/12/05 01:27:19;;;;;;;48.77;19.87;;;;;1.60;101163.00;;;;9769243;30;20229;-78
2022/12/05 01:32:22;;;;;;;55.53;20.83;;;;;1.60;101171.00;;;;9752670;30;20305;-78
2022/12/05 01:37:24;;;;;;;55.43;22.20;;;;;1.60;101167.00;;;;9791588;30;20213;-78
2022/12/05 01:42:26;;;;;;;49.83;20.10;;;;;1.60;101167.00;;;;9753879;30;20217;-77
2022/12/05 01:47:33;;;;;;;46.03;20.13;;;;;1.70;101181.00;;;;9767311;30;20232;-78
2022/12/05 01:52:37;;;;;;;45.33;19.90;;;;;1.70;101176.00;;;;9766322;30;20202;-78
2022/12/05 01:57:39;;;;;;;43.27;20.27;;;;;1.70;101179.00;;;;9765446;30;20267;-78
2022/12/05 02:02:45;;;;;;;46.30;19.30;;;;;1.80;101178.00;;;;9779629;30;20214;-78
2022/12/05 02:07:47;;;;;;;54.53;20.83;;;;;1.80;101183.00;;;;9778588;30;20284;-78
2022/12/05 02:12:50;;;;;;;48.70;21.53;;;;;1.80;101185.00;;;;9784261;30;20225;-78
2022/12/05 02:18:15;;;;;;;51.53;19.30;;;;;1.80;101191.00;;;;9773957;30;20222;-78
2022/12/05 02:23:56;;;;;;;48.03;20.83;;;;;1.90;101173.00;;;;9768281;30;20186;-78
2022/12/05 02:29:04;;;;;;;48.53;19.20;;;;;1.90;101181.00;;;;9766617;30;20225;-78
2022/12/05 02:34:16;;;;;;;55.87;22.00;;;;;1.90;101173.00;;;;9748453;30;20198;-78
2022/12/05 02:39:31;;;;;;;59.87;20.23;;;;;1.90;101175.00;;;;9769976;30;20262;-78
2022/12/05 02:44:42;;;;;;;49.07;20.37;;;;;1.90;101176.00;;;;9739790;30;20217;-78
2022/12/05 02:49:44;;;;;;;53.23;21.07;;;;;1.90;101174.00;;;;9764445;30;20205;-78
2022/12/05 02:54:48;;;;;;;46.73;20.50;;;;;1.90;101173.00;;;;9766971;30;20222;-78
2022/12/05 02:59:50;;;;;;;48.27;18.60;;;;;1.90;101175.00;;;;9769383;30;20198;-78
2022/12/05 03:04:57;;;;;;;55.70;21.20;;;;;1.90;101171.00;;;;9782503;30;20263;-78
2022/12/05 03:10:03;;;;;;;59.50;21.73;;;;;1.90;101168.00;;;;9757227;30;20674;-78
2022/12/05 03:15:10;;;;;;;58.87;20.57;;;;;1.90;101167.00;;;;9745200;30;20214;-78
2022/12/05 03:20:18;;;;;;;48.33;19.70;;;;;1.90;101166.00;;;;9742923;30;20195;-78
2022/12/05 03:25:24;;;;;;;54.07;20.10;;;;;1.90;101167.00;;;;9753838;30;20198;-78
2022/12/05 03:30:27;;;;;;;45.57;20.87;;;;;1.90;101157.00;;;;9774483;30;20252;-78
2022/12/05 03:35:53;;;;;;;55.13;20.20;;;;;1.90;101165.00;;;;9760622;30;20218;-77
2022/12/05 03:41:01;;;;;;;42.20;18.70;;;;;1.90;101160.00;;;;9775830;30;20198;-78
2022/12/05 03:46:06;;;;;;;49.80;19.97;;;;;1.90;101162.00;;;;9774927;30;20267;-78
2022/12/05 03:51:12;;;;;;;48.63;19.50;;;;;1.90;101169.00;;;;9759763;30;20300;-78
2022/12/05 03:56:19;;;;;;;48.57;19.90;;;;;1.80;101172.00;;;;9738594;30;20226;-78
2022/12/05 04:01:25;;;;;;;44.80;18.43;;;;;1.70;101174.00;;;;9741084;30;20209;-78
2022/12/05 04:06:34;;;;;;;45.93;19.40;;;;;1.70;101173.00;;;;9726759;30;20199;-78
2022/12/05 04:11:40;;;;;;;46.40;17.50;;;;;1.70;101179.00;;;;9744632;30;20202;-77
2022/12/05 04:17:05;;;;;;;42.13;16.80;;;;;1.70;101177.00;;;;9754087;30;20313;-78
2022/12/05 04:22:06;;;;;;;39.33;17.70;;;;;1.70;101182.00;;;;9742023;30;20194;-78
2022/12/05 04:27:30;;;;;;;41.20;16.60;;;;;1.70;101189.00;;;;9769900;30;20264;-78
2022/12/05 04:33:03;;;;;;;49.20;18.40;;;;;1.70;101183.00;;;;9740452;30;20272;-78
2022/12/05 04:38:12;;;;;;;43.77;17.07;;;;;1.80;101184.00;;;;9756559;30;20290;-77
2022/12/05 04:43:17;;;;;;;46.17;18.20;;;;;1.80;101196.00;;;;9784706;30;20674;-77
2022/12/05 04:48:21;;;;;;;43.17;18.60;;;;;1.80;101201.00;;;;9755054;30;20210;-77
2022/12/05 04:53:28;;;;;;;47.17;18.57;;;;;1.80;101202.00;;;;9753623;30;20221;-78
2022/12/05 04:58:31;;;;;;;42.70;18.43;;;;;1.80;101204.00;;;;9768958;30;20197;-77
2022/12/05 05:03:35;;;;;;;44.33;17.23;;;;;1.80;101212.00;;;;9755963;30;20628;-77
2022/12/05 05:08:46;;;;;;;46.77;19.63;;;;;1.90;101206.00;;;;9754827;30;20296;-78
2022/12/05 05:13:48;;;;;;;46.30;19.93;;;;;1.80;101205.00;;;;9754741;30;20243;-78
2022/12/05 05:18:51;;;;;;;45.70;19.20;;;;;1.80;101211.00;;;;9770275;30;20201;-77
2022/12/05 05:23:53;;;;;;;47.10;18.33;;;;;1.90;101218.00;;;;9781661;30;20194;-77
2022/12/05 05:28:57;;;;;;;45.93;18.70;;;;;1.90;101215.00;;;;9769252;30;20238;-77
2022/12/05 05:33:59;;;;;;;53.27;20.57;;;;;1.90;101215.00;;;;9769948;30;20741;-77
2022/12/05 05:39:12;;;;;;;44.33;18.60;;;;;1.90;101222.00;;;;9740686;30;20720;-78
2022/12/05 05:44:14;;;;;;;48.07;18.23;;;;;1.90;101226.00;;;;9785508;30;20287;-78
2022/12/05 05:49:16;;;;;;;54.83;19.83;;;;;1.90;101221.00;;;;9769931;30;20200;-78
2022/12/05 05:54:18;;;;;;;54.57;20.17;;;;;2.00;101226.00;;;;9741506;30;20710;-77
2022/12/05 05:59:22;;;;;;;53.67;20.90;;;;;2.00;101227.00;;;;9770823;30;20198;-78
2022/12/05 06:04:24;;;;;;;49.87;20.90;;;;;2.00;101232.00;;;;9769074;30;20213;-77
2022/12/05 06:09:26;;;;;;;48.73;18.77;;;;;2.00;101233.00;;;;9766277;30;20209;-78
2022/12/05 06:14:28;;;;;;;46.53;18.97;;;;;2.10;101236.00;;;;9768196;30;20222;-78
2022/12/05 06:19:30;;;;;;;50.43;19.60;;;;;2.10;101242.00;;;;9767933;30;20202;-78
2022/12/05 06:24:32;;;;;;;40.60;18.27;;;;;2.10;101237.00;;;;9766394;30;20260;-78
2022/12/05 06:29:34;;;;;;;56.50;20.00;;;;;2.10;101238.00;;;;9768757;30;20241;-77
2022/12/05 06:34:36;;;;;;;46.93;19.43;;;;;2.10;101241.00;;;;9754241;30;20299;-78
2022/12/05 06:39:38;;;;;;;48.00;21.57;;;;;2.10;101242.00;;;;9783085;30;20206;-77
2022/12/05 06:44:40;;;;;;;53.27;21.43;;;;;2.10;101253.00;;;;9784066;30;20261;-78
2022/12/05 06:49:42;;;;;;;47.03;18.50;;;;;2.20;101256.00;;;;9766733;30;20217;-77
2022/12/05 06:54:45;;;;;;;49.10;19.67;;;;;2.20;101255.00;;;;9748322;30;20225;-78
2022/12/05 06:59:47;;;;;;;41.20;19.07;;;;;2.20;101249.00;;;;9787407;30;20225;-78
2022/12/05 07:04:49;;;;;;;46.60;20.40;;;;;2.20;101258.00;;;;9774033;30;20570;-78
2022/12/05 07:09:52;;;;;;;39.33;18.70;;;;;2.30;101262.00;;;;9784522;30;20538;-78
2022/12/05 07:14:54;;;;;;;49.10;19.77;;;;;2.30;101282.00;;;;9762483;30;20225;-78
2022/12/05 07:19:56;;;;;;;47.70;20.73;;;;;2.30;101276.00;;;;9756100;30;20662;-77
2022/12/05 07:24:58;;;;;;;49.33;20.23;;;;;2.30;101287.00;;;;9750947;30;20199;-78
2022/12/05 07:30:00;;;;;;;52.07;20.50;;;;;2.40;101292.00;;;;9729148;30;20296;-78
2022/12/05 07:35:03;;;;;;;46.97;19.57;;;;;2.40;101292.00;;;;9747925;30;20217;-77
2022/12/05 07:40:05;;;;;;;53.47;22.37;;;;;2.40;101302.00;;;;9774873;30;20265;-77
2022/12/05 07:45:08;;;;;;;48.03;19.90;;;;;2.40;101297.00;;;;9751570;30;20257;-77
2022/12/05 07:50:10;;;;;;;52.80;19.63;;;;;2.40;101302.00;;;;9770716;30;20304;-77
2022/12/05 07:55:12;;;;;;;51.13;19.67;;;;;2.50;101294.00;;;;9772784;30;20205;-77
2022/12/05 08:00:14;;;;;;;42.23;18.77;;;;;2.50;101312.00;;;;9774231;30;20206;-78
2022/12/05 08:05:16;;;;;;;47.23;20.57;;;;;2.50;101314.00;;;;9754206;30;20244;-78
2022/12/05 08:10:18;;;;;;;42.33;20.00;;;;;2.50;101315.00;;;;9728777;30;20238;-78
2022/12/05 08:15:20;;;;;;;42.37;17.73;;;;;2.60;101320.00;;;;9763263;30;20225;-78
2022/12/05 08:20:22;;;;;;;50.20;20.23;;;;;2.60;101325.00;;;;9788927;30;20212;-77
2022/12/05 08:25:24;;;;;;;40.07;18.10;;;;;2.70;101336.00;;;;9788932;30;20202;-78
2022/12/05 08:30:26;;;;;;;42.97;18.43;;;;;2.70;101336.00;;;;9749290;30;20304;-78
2022/12/05 08:35:28;;;;;;;36.00;17.13;;;;;2.80;101336.00;;;;9774845;30;20678;-79
2022/12/05 08:40:30;;;;;;;36.97;17.17;;;;;2.90;101333.00;;;;9744597;30;20213;-79
2022/12/05 08:45:32;;;;;;;38.97;18.97;;;;;3.00;101348.00;;;;9757148;30;20205;-78
2022/12/05 08:50:34;;;;;;;37.60;16.73;;;;;3.20;101341.00;;;;9773497;30;20602;-79
2022/12/05 08:55:36;;;;;;;35.03;17.47;;;;;3.40;101341.00;;;;9743985;30;20696;-79
2022/12/05 09:00:39;;;;;;;43.50;17.50;;;;;3.50;101355.00;;;;9719745;30;20234;-78
2022/12/05 09:05:41;;;;;;;34.10;16.67;;;;;3.70;101349.00;;;;9765672;30;20202;-77
2022/12/05 09:10:42;;;;;;;31.10;14.03;;;;;3.90;101362.00;;;;9756091;30;20213;-78
2022/12/05 09:15:44;;;;;;;32.27;15.23;;;;;4.10;101349.00;;;;9764926;30;20222;-77
2022/12/05 09:20:46;;;;;;;31.07;16.27;;;;;4.30;101351.00;;;;9773350;30;20306;-78
2022/12/05 09:25:56;;;;;;;31.70;14.67;;;;;4.30;101358.00;;;;9753164;30;20292;-78
2022/12/05 09:31:02;;;;;;;35.90;16.00;;;;;4.10;101365.00;;;;9750634;30;20232;-77
2022/12/05 09:36:06;;;;;;;34.17;16.00;;;;;4.00;101368.00;;;;9745931;30;20300;-78
2022/12/05 09:47:22;;;;;;;28.20;14.80;;;;;4.20;101365.00;;;;9765656;30;20293;-78
2022/12/05 09:52:28;;;;;;;28.80;14.47;;;;;4.30;101372.00;;;;9761332;30;20206;-78
2022/12/05 09:57:36;;;;;;;28.10;14.60;;;;;4.50;101370.00;;;;9732669;30;20261;-78
2022/12/05 10:02:49;;;;;;;24.03;14.03;;;;;4.60;101376.00;;;;9760005;30;20213;-79
2022/12/05 10:08:06;;;;;;;25.97;13.60;;;;;4.60;101386.00;;;;9764402;30;20202;-78
2022/12/05 10:13:44;;;;;;;25.07;14.13;;;;;4.50;101381.00;;;;9753651;30;20682;-79
2022/12/05 10:18:53;;;;;;;24.03;12.63;;;;;4.40;101380.00;;;;9667628;30;20229;-79
2022/12/05 10:23:58;;;;;;;25.83;13.87;;;;;4.30;101380.00;;;;9778963;30;20198;-77
2022/12/05 10:29:19;;;;;;;26.23;13.50;;;;;4.30;101374.00;;;;9769664;30;20226;-79
2022/12/05 10:34:32;;;;;;;24.27;12.73;;;;;4.40;101374.00;;;;9761706;30;20205;-78
2022/12/05 10:39:36;;;;;;;23.27;12.27;;;;;4.50;101385.00;;;;9760513;30;20737;-79
2022/12/05 10:44:38;;;;;;;27.40;13.40;;;;;4.50;101392.00;;;;9774696;30;20280;-78
2022/12/05 10:49:41;;;;;;;27.77;14.47;;;;;4.40;101381.00;;;;9753683;30;20662;-79
2022/12/05 10:54:50;;;;;;;24.30;13.43;;;;;4.30;101392.00;;;;9769185;30;20821;-79
2022/12/05 10:59:53;;;;;;;25.17;12.83;;;;;4.20;101396.00;;;;9748105;30;20237;-78
2022/12/05 11:04:57;;;;;;;22.63;12.80;;;;;4.20;101395.00;;;;9773913;30;20186;-78
2022/12/05 11:10:03;;;;;;;20.70;11.73;;;;;4.40;101395.00;;;;9755798;30;20223;-79
2022/12/05 11:15:25;;;;;;;21.07;11.00;;;;;4.40;101392.00;;;;9740177;30;20222;-79
2022/12/05 11:20:26;;;;;;;22.63;11.80;;;;;4.50;101389.00;;;;9745022;30;20308;-79
2022/12/05 11:25:34;;;;;;;19.27;11.43;;;;;4.30;101397.00;;;;9771657;30;20213;-78
2022/12/05 11:30:36;;;;;;;21.80;11.77;;;;;4.30;101388.00;;;;9772410;30;20521;-78
2022/12/05 11:35:39;;;;;;;23.40;12.43;;;;;4.40;101391.00;;;;9759295;30;20740;-81
2022/12/05 11:41:03;;;;;;;23.37;13.43;;;;;4.40;101384.00;;;;9741696;30;20218;-78
2022/12/05 11:46:34;;;;;;;20.43;12.27;;;;;4.30;101391.00;;;;9758727;30;20708;-78
2022/12/05 11:52:05;;;;;;;20.90;11.33;;;;;4.20;101395.00;;;;9743278;30;20218;-78
2022/12/05 11:57:14;;;;;;;21.67;12.13;;;;;4.40;101384.00;;;;9733381;30;20226;-78
2022/12/05 12:03:00;;;;;;;21.27;11.80;;;;;4.40;101378.00;;;;9763512;30;20686;-78
2022/12/05 12:08:34;;;;;;;18.70;11.80;;;;;4.60;101381.00;;;;9778391;30;20597;-78
2022/12/05 12:14:10;;;;;;;22.53;12.27;;;;;5.10;101380.00;;;;9758459;30;20210;-78
2022/12/05 12:19:29;;;;;;;21.93;11.50;;;;;5.00;101374.00;;;;9757038;30;20226;-78
2022/12/05 12:24:34;;;;;;;20.07;11.47;;;;;5.00;101388.00;;;;9764085;30;20213;-77
2022/12/05 12:29:48;;;;;;;23.03;12.47;;;;;4.90;101383.00;;;;9732466;30;20308;-76
2022/12/05 12:35:06;;;;;;;21.73;13.20;;;;;4.80;101381.00;;;;9753387;30;20566;-78
2022/12/05 12:40:28;;;;;;;21.57;12.73;;;;;4.70;101389.00;;;;9751480;30;20213;-77
2022/12/05 12:46:02;;;;;;;23.10;13.67;;;;;4.60;101391.00;;;;9756495;30;20189;-77
2022/12/05 12:51:12;;;;;;;25.13;13.33;;;;;4.50;101397.00;;;;9783184;30;20198;-81
2022/12/05 12:57:00;;;;;;;21.73;13.77;;;;;4.50;101389.00;;;;9759164;30;20309;-77
2022/12/05 13:02:25;;;;;;;19.50;12.10;;;;;4.60;101381.00;;;;9604887;30;20217;-78
2022/12/05 13:07:32;;;;;;;18.50;10.63;;;;;4.50;101383.00;;;;9735453;30;20301;-78
2022/12/05 13:12:38;;;;;;;20.73;12.33;;;;;4.40;101375.00;;;;9767451;30;20201;-78
2022/12/05 13:17:42;;;;;;;23.90;13.03;;;;;4.50;101375.00;;;;9754598;30;20234;-77
2022/12/05 13:22:46;;;;;;;21.40;12.30;;;;;4.60;101379.00;;;;9738013;30;20217;-78
2022/12/05 13:27:57;;;;;;;24.60;12.17;;;;;4.70;101381.00;;;;9759355;30;20589;-77
2022/12/05 13:33:07;;;;;;;19.23;11.70;;;;;4.70;101384.00;;;;9756282;30;20223;-76
2022/12/05 13:43:54;;;;;;;167.57;83.83;;;;;4.30;101395.00;;;;9771369;30;20208;-77
2022/12/05 13:49:24;;;;;;;23.03;14.60;;;;;4.20;101400.00;;;;9744591;30;20202;-77
2022/12/05 13:54:28;;;;;;;22.50;13.60;;;;;4.20;101413.00;;;;9741761;30;20206;-77
2022/12/05 14:00:08;;;;;;;25.77;14.17;;;;;4.20;101414.00;;;;9751892;30;20791;-78
2022/12/05 14:05:19;;;;;;;23.33;13.17;;;;;4.10;101415.00;;;;9742122;30;20271;-78
2022/12/05 14:10:27;;;;;;;21.87;12.93;;;;;4.10;101417.00;;;;9741879;30;20215;-77
2022/12/05 14:15:32;;;;;;;25.33;13.03;;;;;4.00;101420.00;;;;9737737;30;20284;-78
2022/12/05 14:20:57;;;;;;;25.63;14.63;;;;;3.90;101418.00;;;;9751270;30;20217;-78
2022/12/05 14:26:14;;;;;;;21.50;12.37;;;;;3.90;101420.00;;;;9743288;30;20202;-77
2022/12/05 14:31:25;;;;;;;20.13;13.20;;;;;4.00;101414.00;;;;9765611;30;20201;-78
2022/12/05 14:36:30;;;;;;;26.83;13.93;;;;;3.90;101420.00;;;;9783579;30;20217;-77
2022/12/05 14:41:34;;;;;;;23.43;13.43;;;;;3.90;101417.00;;;;9748962;30;20198;-77
2022/12/05 14:46:43;;;;;;;23.93;13.23;;;;;3.90;101423.00;;;;9728280;30;20705;-76
2022/12/05 14:51:56;;;;;;;23.83;13.00;;;;;3.90;101420.00;;;;9769502;30;20910;-78
2022/12/05 14:57:10;;;;;;;23.37;13.03;;;;;3.90;101421.00;;;;9764008;30;20217;-78
2022/12/05 15:02:25;;;;;;;27.10;13.27;;;;;3.80;101425.00;;;;9766925;30;20871;-77
2022/12/05 15:07:32;;;;;;;24.33;13.47;;;;;3.80;101432.00;;;;9757681;30;20267;-77
2022/12/05 15:12:45;;;;;;;25.97;13.00;;;;;3.80;101432.00;;;;9753007;30;20591;-76
2022/12/05 15:18:08;;;;;;;25.33;14.23;;;;;3.80;101438.00;;;;9762263;30;20773;-78
2022/12/05 15:24:07;;;;;;;31.27;14.83;;;;;3.70;101440.00;;;;9764974;30;20271;-80
2022/12/05 15:29:22;;;;;;;24.57;15.27;;;;;3.70;101440.00;;;;9643235;30;20283;-77
2022/12/05 15:34:43;;;;;;;27.00;14.80;;;;;3.60;101430.00;;;;9740171;30;20290;-77
2022/12/05 15:40:07;;;;;;;27.10;13.73;;;;;3.70;101442.00;;;;9766525;30;20217;-78
2022/12/05 15:45:16;;;;;;;26.13;14.30;;;;;3.70;101446.00;;;;9755274;30;20293;-78
2022/12/05 15:50:32;;;;;;;24.63;13.93;;;;;3.60;101450.00;;;;9758115;30;20237;-79
2022/12/05 15:55:39;;;;;;;27.43;15.00;;;;;3.60;101448.00;;;;9759782;30;20240;-78
2022/12/05 16:00:46;;;;;;;28.03;13.63;;;;;3.70;101445.00;;;;9757995;30;20658;-78
2022/12/05 16:05:57;;;;;;;34.37;16.23;;;;;3.70;101439.00;;;;9766553;30;20925;-76
2022/12/05 16:11:06;;;;;;;34.17;19.00;;;;;3.70;101452.00;;;;9739494;30;20732;-77
2022/12/05 16:16:15;;;;;;;36.33;17.10;;;;;3.70;101454.00;;;;9767975;30;20217;-77
2022/12/05 16:21:30;;;;;;;33.10;18.50;;;;;3.80;101467.00;;;;9743719;30;20198;-78
2022/12/05 16:26:40;;;;;;;34.53;17.97;;;;;3.80;101460.00;;;;9760072;30;20284;-77
2022/12/05 16:31:43;;;;;;;39.87;18.33;;;;;3.80;101455.00;;;;9764131;30;20259;-77
2022/12/05 16:36:50;;;;;;;39.97;20.07;;;;;3.80;101460.00;;;;9737004;30;20272;-77
2022/12/05 16:41:53;;;;;;;39.10;19.40;;;;;3.80;101460.00;;;;9772202;30;20202;-77
2022/12/05 16:46:55;;;;;;;40.70;22.73;;;;;3.80;101455.00;;;;9766617;30;20197;-77
2022/12/05 16:52:17;;;;;;;44.67;22.47;;;;;3.90;101455.00;;;;9757791;30;20824;-78
2022/12/05 16:57:20;;;;;;;45.63;20.53;;;;;3.90;101455.00;;;;9738253;30;20222;-78
2022/12/05 17:02:22;;;;;;;43.70;20.07;;;;;3.90;101447.00;;;;9735245;30;20210;-80
2022/12/05 17:07:24;;;;;;;50.70;21.10;;;;;3.90;101458.00;;;;9724053;30;20210;-77
2022/12/05 17:12:33;;;;;;;40.97;20.77;;;;;3.90;101449.00;;;;9783203;30;20206;-80
2022/12/05 17:17:35;;;;;;;48.20;21.97;;;;;3.90;101452.00;;;;9769141;30;20213;-80
2022/12/05 17:22:37;;;;;;;38.57;20.63;;;;;3.90;101462.00;;;;9756388;30;20213;-77
2022/12/05 17:27:39;;;;;;;40.63;20.73;;;;;3.90;101455.00;;;;9722296;30;20593;-79
2022/12/05 17:32:41;;;;;;;39.17;20.90;;;;;3.90;101454.00;;;;9763802;30;20207;-79
2022/12/05 17:37:43;;;;;;;46.67;20.77;;;;;3.90;101459.00;;;;9775408;30;20218;-80
2022/12/05 17:42:45;;;;;;;42.17;19.87;;;;;4.00;101464.00;;;;9746622;30;20210;-79
2022/12/05 17:47:48;;;;;;;45.53;20.73;;;;;4.00;101463.00;;;;9756810;30;20712;-77
2022/12/05 17:52:54;;;;;;;38.77;19.87;;;;;4.00;101468.00;;;;9743297;30;20212;-81
2022/12/05 17:57:56;;;;;;;43.83;20.30;;;;;4.00;101480.00;;;;9734074;30;20253;-79
2022/12/05 18:02:58;;;;;;;39.73;19.47;;;;;4.00;101476.00;;;;9757817;30;20205;-77
2022/12/05 18:08:00;;;;;;;40.67;18.97;;;;;4.10;101480.00;;;;9751159;30;20268;-77
2022/12/05 18:13:02;;;;;;;34.20;18.80;;;;;4.10;101478.00;;;;9746099;30;20202;-77
2022/12/05 18:18:06;;;;;;;36.43;18.50;;;;;4.10;101483.00;;;;9744101;30;20564;-78
2022/12/05 18:23:09;;;;;;;34.20;18.50;;;;;4.10;101482.00;;;;9758622;30;20205;-77
2022/12/05 18:28:12;;;;;;;37.40;17.97;;;;;4.10;101479.00;;;;9766029;30;20284;-78
2022/12/05 18:33:20;;;;;;;43.20;19.10;;;;;4.10;101485.00;;;;9746604;30;20252;-77
2022/12/05 18:38:22;;;;;;;33.37;18.37;;;;;4.20;101490.00;;;;9766610;30;20228;-77
2022/12/05 18:43:23;;;;;;;36.53;18.70;;;;;4.20;101489.00;;;;9737247;30;20546;-77
2022/12/05 18:48:28;;;;;;;42.17;21.60;;;;;4.20;101494.00;;;;9754118;30;20198;-76
2022/12/05 18:53:50;;;;;;;41.43;21.40;;;;;4.20;101507.00;;;;9758427;30;20291;-78
2022/12/05 18:59:05;;;;;;;45.57;21.70;;;;;4.20;101502.00;;;;9744910;30;20220;-77
2022/12/05 19:04:11;;;;;;;46.37;21.97;;;;;4.30;101501.00;;;;9773949;30;20210;-77
2022/12/05 19:09:14;;;;;;;47.20;22.10;;;;;4.30;101510.00;;;;9759850;30;20197;-78
2022/12/05 19:14:18;;;;;;;53.27;22.37;;;;;4.30;101501.00;;;;9787933;30;20640;-77
2022/12/05 19:19:20;;;;;;;47.97;21.93;;;;;4.30;101517.00;;;;9745826;30;20241;-78
2022/12/05 19:24:22;;;;;;;51.70;23.07;;;;;4.30;101507.00;;;;9722014;30;20210;-78
2022/12/05 19:29:24;;;;;;;47.97;22.70;;;;;4.30;101506.00;;;;9763536;30;20237;-78
2022/12/05 19:34:26;;;;;;;49.07;23.27;;;;;4.30;101517.00;;;;9761126;30;20284;-78
2022/12/05 19:39:28;;;;;;;45.20;22.67;;;;;4.40;101512.00;;;;9758302;30;20279;-78
2022/12/05 19:44:31;;;;;;;44.00;21.93;;;;;4.40;101511.00;;;;9771720;30;20256;-78
2022/12/05 19:49:32;;;;;;;43.63;22.07;;;;;4.40;101510.00;;;;9772074;30;20264;-77
2022/12/05 19:54:35;;;;;;;45.77;20.73;;;;;4.40;101516.00;;;;9757864;30;20225;-78
2022/12/05 19:59:37;;;;;;;48.43;21.47;;;;;4.40;101507.00;;;;9757249;30;20213;-78
2022/12/05 20:04:39;;;;;;;41.63;20.67;;;;;4.40;101522.00;;;;9770078;30;20233;-79
2022/12/05 20:09:41;;;;;;;45.87;21.50;;;;;4.40;101524.00;;;;9750273;30;20217;-77
2022/12/05 20:14:43;;;;;;;48.63;23.20;;;;;4.40;101521.00;;;;9762173;30;20576;-78
2022/12/05 20:19:45;;;;;;;50.40;21.90;;;;;4.40;101516.00;;;;9771657;30;20221;-79
2022/12/05 20:24:47;;;;;;;44.27;22.43;;;;;4.40;101524.00;;;;9757181;30;20736;-79
2022/12/05 20:29:49;;;;;;;49.40;22.23;;;;;4.40;101526.00;;;;9786497;30;20698;-79
2022/12/05 20:34:51;;;;;;;38.90;21.07;;;;;4.50;101525.00;;;;9757230;30;20205;-78
2022/12/05 20:39:53;;;;;;;43.73;20.10;;;;;4.50;101510.00;;;;9726746;30;20225;-79
2022/12/05 20:44:55;;;;;;;44.13;20.47;;;;;4.50;101522.00;;;;9743115;30;20801;-77
2022/12/05 20:49:57;;;;;;;41.60;20.67;;;;;4.50;101516.00;;;;9733152;30;20210;-79
2022/12/05 20:55:00;;;;;;;35.87;19.10;;;;;4.50;101524.00;;;;9723024;30;20311;-77
2022/12/05 21:00:02;;;;;;;40.53;19.17;;;;;4.60;101523.00;;;;9734603;30;20300;-77
2022/12/05 21:05:05;;;;;;;36.90;17.53;;;;;4.60;101516.00;;;;9734908;30;20276;-77
2022/12/05 21:10:07;;;;;;;43.47;20.20;;;;;4.60;101512.00;;;;9745078;30;20199;-77
2022/12/05 21:15:10;;;;;;;42.70;20.80;;;;;4.60;101501.00;;;;9727189;30;20217;-77
2022/12/05 21:20:12;;;;;;;34.30;17.67;;;;;4.60;101504.00;;;;9752776;30;20228;-79
2022/12/05 21:25:14;;;;;;;27.63;15.13;;;;;4.60;101499.00;;;;9767546;30;20213;-78
2022/12/05 21:30:16;;;;;;;34.23;16.47;;;;;4.60;101494.00;;;;9755944;30;20226;-78
2022/12/05 21:35:18;;;;;;;27.57;15.37;;;;;4.60;101500.00;;;;9747146;30;20210;-78
2022/12/05 21:40:19;;;;;;;32.00;16.27;;;;;4.70;101507.00;;;;9743986;30;20244;-78
2022/12/05 21:45:21;;;;;;;35.20;16.00;;;;;4.70;101498.00;;;;9767248;30;20213;-77
2022/12/05 21:50:23;;;;;;;28.13;15.50;;;;;4.70;101510.00;;;;9755338;30;20202;-77
2022/12/05 21:55:25;;;;;;;32.03;15.63;;;;;4.70;101514.00;;;;9769233;30;20201;-77
2022/12/05 22:00:27;;;;;;;33.73;17.33;;;;;4.70;101512.00;;;;9784024;30;20304;-78
2022/12/05 22:05:29;;;;;;;34.40;18.83;;;;;4.70;101521.00;;;;9768994;30;20239;-78
2022/12/05 22:10:33;;;;;;;30.07;16.53;;;;;4.70;101521.00;;;;9769548;30;20337;-81
2022/12/05 22:15:35;;;;;;;30.50;15.67;;;;;4.70;101532.00;;;;9735597;30;20210;-77
2022/12/05 22:20:37;;;;;;;30.23;15.27;;;;;4.80;101537.00;;;;9768419;30;20217;-77
2022/12/05 22:25:39;;;;;;;30.13;15.97;;;;;4.80;101527.00;;;;9754374;30;20206;-78
2022/12/05 22:30:45;;;;;;;27.60;15.03;;;;;4.80;101528.00;;;;9758608;30;20222;-77
2022/12/05 22:35:55;;;;;;;26.73;14.07;;;;;4.80;101526.00;;;;9759526;30;20521;-77
2022/12/05 22:41:00;;;;;;;25.83;13.43;;;;;4.80;101528.00;;;;9774114;30;20221;-78
2022/12/05 22:46:07;;;;;;;24.03;14.07;;;;;4.90;101519.00;;;;9744837;30;20316;-77
2022/12/05 22:51:10;;;;;;;27.30;14.97;;;;;4.80;101519.00;;;;9787487;30;20240;-80
2022/12/05 22:56:15;;;;;;;23.80;13.13;;;;;4.80;101520.00;;;;9759899;30;20209;-78
2022/12/05 23:01:22;;;;;;;24.93;13.67;;;;;4.90;101516.00;;;;9750598;30;20256;-79
2022/12/05 23:06:25;;;;;;;24.17;12.43;;;;;4.90;101515.00;;;;9757263;30;20229;-79
2022/12/05 23:11:29;;;;;;;23.60;11.57;;;;;4.90;101518.00;;;;9757500;30;20292;-79
2022/12/05 23:16:32;;;;;;;21.10;10.73;;;;;4.90;101517.00;;;;9758191;30;20285;-79
2022/12/05 23:21:39;;;;;;;19.73;11.60;;;;;4.90;101514.00;;;;9761898;30;20212;-80
2022/12/05 23:26:42;;;;;;;17.93;9.67;;;;;4.90;101513.00;;;;9757997;30;20236;-81
2022/12/05 23:31:45;;;;;;;20.27;9.50;;;;;4.90;101504.00;;;;9757866;30;20209;-80
2022/12/05 23:36:47;;;;;;;18.67;10.33;;;;;4.90;101506.00;;;;9752432;30;20214;-80
2022/12/05 23:41:48;;;;;;;18.50;9.10;;;;;4.90;101516.00;;;;9757028;30;20732;-80
2022/12/05 23:46:50;;;;;;;17.00;8.97;;;;;4.90;101513.00;;;;9750011;30;20214;-80
2022/12/05 23:51:52;;;;;;;18.27;9.97;;;;;4.90;101510.00;;;;9749387;30;20213;-80
2022/12/05 23:56:54;;;;;;;18.10;9.63;;;;;4.90;101503.00;;;;9758567;30;20686;-78
